Time;durP1;ratioP1;P1;durP2;ratioP2;P2;SDS_P1;SDS_P2;PMS_P1;PMS_P2;Temp;Humidity;BMP_temperature;BMP_pressure;BME280_temperature;BME280_humidity;BME280_pressure;Samples;Min_cycle;Max_cycle;Signal;HPM_P1;HPM_P2
2022/10/30 00:01:54;;;;;;;;;;;;;;;12.51;100.00;101567.72;5045391;28;19940;-75
2022/10/30 00:04:19;;;;;;;;;;;;;;;12.49;100.00;101573.09;5029460;28;19928;-75
2022/10/30 00:06:45;;;;;;;;;;;;;;;12.47;100.00;101563.44;5043004;28;19932;-75
2022/10/30 00:09:10;;;;;;;;;;;;;;;12.43;100.00;101572.50;5029414;28;19936;-75
2022/10/30 00:11:36;;;;;;;;;;;;;;;12.41;100.00;101558.44;5042726;28;20042;-75
2022/10/30 00:14:01;;;;;;;;;;;;;;;12.36;100.00;101558.59;5027921;28;19933;-75
2022/10/30 00:16:27;;;;;;;;;;;;;;;12.33;100.00;101553.44;5044984;28;19960;-75
2022/10/30 00:18:52;;;;;;;;;;;;;;;12.32;100.00;101549.03;5044829;28;20483;-75
2022/10/30 00:21:18;;;;;;;;;;;;;;;12.36;100.00;101556.81;5042841;28;20075;-75
2022/10/30 00:23:49;;;;;;;;;;;;;;;12.38;100.00;101554.09;5044487;28;19932;-75
2022/10/30 00:26:15;;;;;;;;;;;;;;;12.39;100.00;101547.84;5024531;28;20105;-75
2022/10/30 00:28:40;;;;;;;;;;;;;;;12.44;100.00;101537.91;5031623;28;21064;-75
2022/10/30 00:31:08;;;;;;;;;;;;;;;12.47;100.00;101543.09;5013802;28;19948;-75
2022/10/30 00:33:33;;;;;;;;;;;;;;;12.49;100.00;101545.69;5042148;28;20383;-75
2022/10/30 00:35:59;;;;;;;;;;;;;;;12.52;100.00;101529.59;5042362;28;19916;-75
2022/10/30 00:38:25;;;;;;;;;;;;;;;12.57;100.00;101537.38;5011203;28;19968;-75
2022/10/30 00:40:50;;;;;;;;;;;;;;;12.59;100.00;101541.69;5044525;28;20385;-75
2022/10/30 00:43:37;;;;;;;;;;;;;;;12.62;100.00;101541.56;5023927;28;21491;-75
2022/10/30 00:46:07;;;;;;;;;;;;;;;12.65;100.00;101532.63;5044027;28;19927;-75
2022/10/30 00:48:35;;;;;;;;;;;;;;;12.69;100.00;101541.31;5044402;28;19929;-75
2022/10/30 00:51:01;;;;;;;;;;;;;;;12.73;100.00;101537.56;5028711;28;19921;-74
2022/10/30 00:53:26;;;;;;;;;;;;;;;12.76;100.00;101540.97;5028503;28;20017;-75
2022/10/30 00:55:56;;;;;;;;;;;;;;;12.77;100.00;101544.50;5044726;28;19928;-75
2022/10/30 00:58:23;;;;;;;;;;;;;;;12.78;100.00;101543.56;5019592;28;19976;-75
2022/10/30 01:00:49;;;;;;;;;;;;;;;12.77;100.00;101539.19;5044219;28;20590;-75
2022/10/30 01:03:15;;;;;;;;;;;;;;;12.74;100.00;101539.28;5043830;28;20379;-75
2022/10/30 01:05:41;;;;;;;;;;;;;;;12.72;100.00;101542.03;5044434;28;19978;-75
2022/10/30 01:08:06;;;;;;;;;;;;;;;12.69;100.00;101536.84;5027413;28;19932;-75
2022/10/30 01:10:31;;;;;;;;;;;;;;;12.67;100.00;101533.41;5043941;28;19939;-75
2022/10/30 01:12:57;;;;;;;;;;;;;;;12.66;100.00;101544.97;5028362;28;19936;-75
2022/10/30 01:15:24;;;;;;;;;;;;;;;12.62;100.00;101541.56;5043587;28;20005;-75
2022/10/30 01:17:50;;;;;;;;;;;;;;;12.61;100.00;101538.97;5044179;28;19972;-75
2022/10/30 01:20:21;;;;;;;;;;;;;;;12.59;100.00;101546.16;5043967;28;20023;-75
2022/10/30 01:22:51;;;;;;;;;;;;;;;12.56;100.00;101541.84;5043601;28;19936;-75
2022/10/30 01:25:25;;;;;;;;;;;;;;;12.55;100.00;101542.78;5021499;28;19978;-75
2022/10/30 01:28:10;;;;;;;;;;;;;;;12.52;100.00;101556.16;5043997;28;20399;-76
2022/10/30 01:30:35;;;;;;;;;;;;;;;12.47;100.00;101543.09;5028065;28;20026;-75
2022/10/30 01:33:01;;;;;;;;;;;;;;;12.44;100.00;101556.50;5043810;28;19929;-75
2022/10/30 01:35:26;;;;;;;;;;;;;;;12.41;100.00;101558.44;5024613;28;19935;-75
2022/10/30 01:38:06;;;;;;;;;;;;;;;12.38;100.00;101570.03;5029601;28;19931;-75
2022/10/30 01:40:32;;;;;;;;;;;;;;;12.33;100.00;101570.19;5011650;28;19938;-75
2022/10/30 01:42:57;;;;;;;;;;;;;;;12.31;100.00;101572.06;5043583;28;20529;-75
2022/10/30 01:45:41;;;;;;;;;;;;;;;12.27;100.00;101567.81;5040360;28;19934;-75
2022/10/30 01:48:06;;;;;;;;;;;;;;;12.23;100.00;101566.22;5043757;28;20058;-75
2022/10/30 01:50:50;;;;;;;;;;;;;;;12.22;100.00;101560.03;5043199;28;19929;-75
2022/10/30 01:53:35;;;;;;;;;;;;;;;12.20;100.00;101561.03;5043192;28;19928;-75
2022/10/30 01:56:03;;;;;;;;;;;;;;;12.17;100.00;101569.13;5043709;28;20306;-75
2022/10/30 01:58:34;;;;;;;;;;;;;;;12.14;100.00;101562.13;5042855;28;19935;-74
2022/10/30 02:00:59;;;;;;;;;;;;;;;12.12;100.00;101576.38;5027318;28;19928;-74
2022/10/30 02:03:25;;;;;;;;;;;;;;;12.09;100.00;101570.28;5056202;28;20516;-75
2022/10/30 02:05:50;;;;;;;;;;;;;;;12.07;100.00;101566.84;5028909;28;20407;-75
2022/10/30 02:08:16;;;;;;;;;;;;;;;12.07;100.00;101566.84;5010572;28;19929;-75
2022/10/30 02:10:42;;;;;;;;;;;;;;;12.04;100.00;101572.25;5021032;28;20368;-74
2022/10/30 02:13:07;;;;;;;;;;;;;;;12.04;100.00;101576.72;5042344;28;19936;-74
2022/10/30 02:15:33;;;;;;;;;;;;;;;12.03;100.00;101569.63;5019899;28;19928;-75
2022/10/30 02:17:58;;;;;;;;;;;;;;;12.01;100.00;101564.41;5029811;28;19925;-74
2022/10/30 02:20:23;;;;;;;;;;;;;;;12.01;100.00;101568.84;5042103;28;20387;-75
2022/10/30 02:22:49;;;;;;;;;;;;;;;12.01;100.00;101569.72;5027163;28;19978;-74
2022/10/30 02:25:14;;;;;;;;;;;;;;;12.01;100.00;101569.72;5027571;28;19925;-74
2022/10/30 02:27:40;;;;;;;;;;;;;;;12.02;100.00;101573.22;5042427;28;19936;-74
2022/10/30 02:30:05;;;;;;;;;;;;;;;12.02;100.00;101576.75;5042282;28;19932;-74
2022/10/30 02:32:31;;;;;;;;;;;;;;;12.03;100.00;101581.16;5056770;28;19982;-74
2022/10/30 02:34:56;;;;;;;;;;;;;;;12.04;100.00;101580.22;5026840;28;19935;-74
2022/10/30 02:37:23;;;;;;;;;;;;;;;12.05;100.00;101575.78;5042831;28;19929;-74
2022/10/30 02:39:48;;;;;;;;;;;;;;;12.06;100.00;101580.16;5042723;28;19932;-74
2022/10/30 02:42:14;;;;;;;;;;;;;;;12.05;100.00;101584.59;5039847;28;20565;-74
2022/10/30 02:44:39;;;;;;;;;;;;;;;12.05;100.00;101587.25;5042532;28;20343;-75
2022/10/30 02:47:04;;;;;;;;;;;;;;;12.06;100.00;101589.00;5023626;28;20310;-75
2022/10/30 02:49:30;;;;;;;;;;;;;;;12.06;100.00;101590.78;5042346;28;20497;-74
2022/10/30 02:51:55;;;;;;;;;;;;;;;12.06;100.00;101596.97;5027084;28;19982;-74
2022/10/30 02:54:20;;;;;;;;;;;;;;;12.04;100.00;101588.19;5042344;28;20749;-74
2022/10/30 02:56:46;;;;;;;;;;;;;;;12.04;100.00;101592.66;5041254;28;19935;-74
2022/10/30 02:59:11;;;;;;;;;;;;;;;12.06;100.00;101593.44;5042824;28;19929;-74
2022/10/30 03:01:36;;;;;;;;;;;;;;;12.05;100.00;101594.38;5043600;28;19936;-74
2022/10/30 03:04:02;;;;;;;;;;;;;;;12.08;100.00;101592.47;5025895;28;20341;-74
2022/10/30 03:06:27;;;;;;;;;;;;;;;12.07;100.00;101593.38;5026162;28;20248;-74
2022/10/30 03:08:53;;;;;;;;;;;;;;;12.07;100.00;101604.00;5026517;28;19929;-74
2022/10/30 03:11:18;;;;;;;;;;;;;;;12.06;100.00;101604.94;5027037;28;19928;-74
2022/10/30 03:13:44;;;;;;;;;;;;;;;12.07;100.00;101608.44;5026809;28;19928;-74
2022/10/30 03:16:13;;;;;;;;;;;;;;;12.06;100.00;101601.41;5029285;28;19931;-74
2022/10/30 03:18:39;;;;;;;;;;;;;;;12.05;100.00;101616.44;5043852;28;20298;-74
2022/10/30 03:21:05;;;;;;;;;;;;;;;12.05;100.00;101621.75;5043242;28;19928;-74
2022/10/30 03:23:31;;;;;;;;;;;;;;;12.03;100.00;101620.97;5030478;28;19971;-74
2022/10/30 03:25:57;;;;;;;;;;;;;;;12.04;100.00;101620.03;5046147;28;20031;-74
2022/10/30 03:28:23;;;;;;;;;;;;;;;12.04;100.00;101617.38;5032104;28;20015;-74
2022/10/30 03:30:48;;;;;;;;;;;;;;;12.04;100.00;101614.72;5004349;28;20376;-74
2022/10/30 03:33:14;;;;;;;;;;;;;;;12.05;100.00;101619.09;5030376;28;20113;-74
2022/10/30 03:35:39;;;;;;;;;;;;;;;12.04;100.00;101625.34;5026338;28;19921;-74
2022/10/30 03:38:04;;;;;;;;;;;;;;;12.04;100.00;101624.50;5045628;28;19929;-74
2022/10/30 03:40:30;;;;;;;;;;;;;;;12.04;100.00;101635.09;5025617;28;19925;-74
2022/10/30 03:42:55;;;;;;;;;;;;;;;12.03;100.00;101633.31;5045083;28;19935;-75
2022/10/30 03:45:21;;;;;;;;;;;;;;;12.02;100.00;101635.13;5044561;28;20410;-74
2022/10/30 03:47:46;;;;;;;;;;;;;;;12.00;100.00;101626.38;5030093;28;20030;-75
2022/10/30 03:50:11;;;;;;;;;;;;;;;11.98;100.00;101624.69;5044690;28;19982;-74
2022/10/30 03:52:37;;;;;;;;;;;;;;;11.97;100.00;101628.28;5029846;28;19975;-74
2022/10/30 03:55:02;;;;;;;;;;;;;;;11.96;100.00;101632.72;5029883;28;20426;-75
2022/10/30 03:57:28;;;;;;;;;;;;;;;11.95;100.00;101621.22;5045319;28;19931;-74
2022/10/30 03:59:53;;;;;;;;;;;;;;;11.94;100.00;101623.94;5045309;28;19941;-75
2022/10/30 04:02:18;;;;;;;;;;;;;;;11.95;100.00;101623.03;5046041;28;20414;-74
2022/10/30 04:04:44;;;;;;;;;;;;;;;11.96;100.00;101616.78;5044925;28;19932;-74
2022/10/30 04:07:12;;;;;;;;;;;;;;;11.96;100.00;101622.09;5031566;28;19928;-74
2022/10/30 04:09:38;;;;;;;;;;;;;;;11.97;100.00;101621.16;5059500;28;19971;-74
2022/10/30 04:12:03;;;;;;;;;;;;;;;11.96;100.00;101619.44;5029884;28;20023;-75
2022/10/30 04:14:29;;;;;;;;;;;;;;;11.97;100.00;101610.56;5044947;28;20362;-75
2022/10/30 04:16:54;;;;;;;;;;;;;;;11.98;100.00;101603.47;5025960;28;19939;-74
2022/10/30 04:19:19;;;;;;;;;;;;;;;11.96;100.00;101614.13;5029927;28;19934;-74
2022/10/30 04:21:46;;;;;;;;;;;;;;;11.97;100.00;101610.56;5026255;28;19925;-74
2022/10/30 04:24:14;;;;;;;;;;;;;;;11.97;100.00;101615.84;5029786;28;19925;-74
2022/10/30 04:26:40;;;;;;;;;;;;;;;11.97;100.00;101607.91;5043727;28;19936;-74
2022/10/30 04:29:05;;;;;;;;;;;;;;;11.96;100.00;101611.47;5044755;28;21480;-75
2022/10/30 04:31:30;;;;;;;;;;;;;;;11.96;100.00;101611.47;5024406;28;19929;-74
2022/10/30 04:33:56;;;;;;;;;;;;;;;11.95;100.00;101609.75;5024565;28;19924;-75
2022/10/30 04:36:28;;;;;;;;;;;;;;;11.93;100.00;101604.50;5044978;28;20403;-74
2022/10/30 04:38:54;;;;;;;;;;;;;;;11.90;100.00;101609.06;5042266;28;19941;-74
2022/10/30 04:41:19;;;;;;;;;;;;;;;11.91;100.00;101610.78;5043947;28;19933;-74
2022/10/30 04:43:47;;;;;;;;;;;;;;;11.89;100.00;101608.22;5024699;28;21974;-74
2022/10/30 04:46:12;;;;;;;;;;;;;;;11.89;100.00;101607.34;5044759;28;19924;-74
2022/10/30 04:48:38;;;;;;;;;;;;;;;11.88;100.00;101595.84;5044024;28;19971;-74
2022/10/30 04:51:03;;;;;;;;;;;;;;;11.88;100.00;101592.34;5044850;28;19929;-74
2022/10/30 04:53:28;;;;;;;;;;;;;;;11.87;100.00;101593.28;5042442;28;19978;-75
2022/10/30 04:55:54;;;;;;;;;;;;;;;11.82;100.00;101589.00;5041373;28;20497;-74
2022/10/30 04:58:19;;;;;;;;;;;;;;;11.79;100.00;101598.88;5044477;28;19924;-75
2022/10/30 05:00:45;;;;;;;;;;;;;;;11.77;100.00;101596.25;5029279;28;19931;-74
2022/10/30 05:03:37;;;;;;;;;;;;;;;11.73;100.00;101588.50;5024607;28;19928;-74
2022/10/30 05:06:03;;;;;;;;;;;;;;;11.71;100.00;101593.00;5042279;28;20023;-74
2022/10/30 05:08:29;;;;;;;;;;;;;;;11.68;100.00;101591.31;5028811;28;19931;-74
2022/10/30 05:10:54;;;;;;;;;;;;;;;11.68;100.00;101592.16;5043763;28;19924;-75
2022/10/30 05:13:20;;;;;;;;;;;;;;;11.70;100.00;101600.06;5028691;28;19924;-74
2022/10/30 05:15:45;;;;;;;;;;;;;;;11.68;100.00;101597.47;5044404;28;19928;-74
2022/10/30 05:18:10;;;;;;;;;;;;;;;11.67;100.00;101598.41;5013201;28;19921;-74
2022/10/30 05:20:36;;;;;;;;;;;;;;;11.67;100.00;101587.78;5023959;28;20349;-74
2022/10/30 05:23:02;;;;;;;;;;;;;;;11.67;100.00;101594.91;5044043;28;20393;-74
2022/10/30 05:25:27;;;;;;;;;;;;;;;11.63;100.00;101596.81;5022291;28;20403;-74
2022/10/30 05:27:59;;;;;;;;;;;;;;;11.64;100.00;101595.88;5041655;28;19970;-74
2022/10/30 05:30:29;;;;;;;;;;;;;;;11.64;100.00;101603.84;5025061;28;20745;-74
2022/10/30 05:33:02;;;;;;;;;;;;;;;11.65;100.00;101597.59;5029846;28;19928;-74
2022/10/30 05:35:28;;;;;;;;;;;;;;;11.64;100.00;101589.69;5043498;28;19944;-74
2022/10/30 05:37:53;;;;;;;;;;;;;;;11.65;100.00;101596.72;5039833;28;19929;-75
2022/10/30 05:40:18;;;;;;;;;;;;;;;11.65;100.00;101599.38;5042807;28;20553;-74
2022/10/30 05:42:44;;;;;;;;;;;;;;;11.64;100.00;101595.00;5043239;28;19936;-74
2022/10/30 05:45:10;;;;;;;;;;;;;;;11.62;100.00;101596.84;5043459;28;20407;-74
2022/10/30 05:47:35;;;;;;;;;;;;;;;11.60;100.00;101590.75;5042742;28;19940;-75
2022/10/30 05:50:01;;;;;;;;;;;;;;;11.59;100.00;101597.00;4993837;28;19924;-75
2022/10/30 05:52:28;;;;;;;;;;;;;;;11.57;100.00;101598.81;5024427;28;20027;-74
2022/10/30 05:54:53;;;;;;;;;;;;;;;11.54;100.00;101595.38;5011308;28;19982;-74
2022/10/30 05:57:18;;;;;;;;;;;;;;;11.52;100.00;101594.56;5043236;28;19924;-74
2022/10/30 05:59:44;;;;;;;;;;;;;;;11.49;100.00;101592.00;5027851;28;19964;-75
2022/10/30 06:02:09;;;;;;;;;;;;;;;11.47;100.00;101604.47;5027587;28;19928;-74
2022/10/30 06:04:34;;;;;;;;;;;;;;;11.45;100.00;101606.31;5043451;28;19929;-75
2022/10/30 06:07:00;;;;;;;;;;;;;;;11.45;100.00;101605.44;5027816;28;20307;-74
2022/10/30 06:09:25;;;;;;;;;;;;;;;11.40;100.00;101613.56;5027213;28;19939;-74
2022/10/30 06:11:51;;;;;;;;;;;;;;;11.37;100.00;101613.66;5027167;28;19964;-74
2022/10/30 06:14:17;;;;;;;;;;;;;;;11.35;100.00;101599.63;5027500;28;19924;-74
2022/10/30 06:16:42;;;;;;;;;;;;;;;11.33;100.00;101601.47;5042659;28;19928;-74
2022/10/30 06:19:07;;;;;;;;;;;;;;;11.31;100.00;101605.94;5042479;28;19929;-74
2022/10/30 06:21:33;;;;;;;;;;;;;;;11.23;100.00;101607.09;5043003;28;19971;-74
2022/10/30 06:23:58;;;;;;;;;;;;;;;11.15;100.00;101606.50;5056811;28;20046;-74
2022/10/30 06:26:23;;;;;;;;;;;;;;;11.08;100.00;101607.63;5027187;28;20383;-74
2022/10/30 06:28:49;;;;;;;;;;;;;;;11.02;100.00;101615.81;5027812;28;20018;-75
2022/10/30 06:31:14;;;;;;;;;;;;;;;10.99;100.00;101612.34;5043307;28;19933;-74
2022/10/30 06:33:40;;;;;;;;;;;;;;;10.97;100.00;101611.56;5041466;28;19929;-74
2022/10/30 06:36:05;;;;;;;;;;;;;;;10.97;100.00;101614.19;5042392;28;20027;-74
2022/10/30 06:38:31;;;;;;;;;;;;;;;10.98;100.00;101617.69;5056204;28;20338;-75
2022/10/30 06:40:56;;;;;;;;;;;;;;;10.99;100.00;101628.25;5026518;28;19928;-74
2022/10/30 06:43:22;;;;;;;;;;;;;;;11.01;100.00;101622.91;5056290;28;19929;-74
2022/10/30 06:45:47;;;;;;;;;;;;;;;11.03;100.00;101630.78;5056638;28;20054;-74
2022/10/30 06:48:12;;;;;;;;;;;;;;;11.03;100.00;101633.44;5027279;28;19928;-74
2022/10/30 06:50:38;;;;;;;;;;;;;;;11.02;100.00;101629.94;5026157;28;19924;-74
2022/10/30 06:53:09;;;;;;;;;;;;;;;11.03;100.00;101636.06;5043543;28;20276;-74
2022/10/30 06:55:35;;;;;;;;;;;;;;;11.05;100.00;101644.84;5026957;28;20610;-75
2022/10/30 06:58:00;;;;;;;;;;;;;;;11.05;100.00;101642.22;5042686;28;19932;-75
2022/10/30 07:00:26;;;;;;;;;;;;;;;11.07;100.00;101638.56;5042712;28;19929;-75
2022/10/30 07:02:58;;;;;;;;;;;;;;;11.08;100.00;101639.44;5026797;28;19928;-75
2022/10/30 07:05:23;;;;;;;;;;;;;;;11.08;100.00;101640.31;5026595;28;19924;-75
2022/10/30 07:07:49;;;;;;;;;;;;;;;11.12;100.00;101638.44;5042269;28;20295;-75
2022/10/30 07:10:14;;;;;;;;;;;;;;;11.12;100.00;101635.78;5041946;28;21955;-75
2022/10/30 07:12:40;;;;;;;;;;;;;;;11.12;100.00;101635.78;5042429;28;20387;-75
2022/10/30 07:15:05;;;;;;;;;;;;;;;11.13;100.00;101634.84;5042081;28;20405;-74
2022/10/30 07:17:31;;;;;;;;;;;;;;;11.14;100.00;101633.94;5042367;28;19928;-74
2022/10/30 07:19:56;;;;;;;;;;;;;;;11.15;100.00;101635.66;5032439;28;19929;-74
2022/10/30 07:22:22;;;;;;;;;;;;;;;11.16;100.00;101642.69;5042225;28;19961;-75
2022/10/30 07:24:47;;;;;;;;;;;;;;;11.16;100.00;101637.38;5041827;28;19940;-75
2022/10/30 07:27:13;;;;;;;;;;;;;;;11.18;100.00;101645.28;5041225;28;19940;-74
2022/10/30 07:29:38;;;;;;;;;;;;;;;11.19;100.00;101642.59;5042298;28;19928;-75
2022/10/30 07:32:03;;;;;;;;;;;;;;;11.21;100.00;101637.22;5038825;28;19928;-75
2022/10/30 07:34:29;;;;;;;;;;;;;;;11.25;100.00;101647.69;5042039;28;20030;-75
2022/10/30 07:36:54;;;;;;;;;;;;;;;11.27;100.00;101651.13;5026050;28;19980;-75
2022/10/30 07:39:20;;;;;;;;;;;;;;;11.31;100.00;101651.00;5041438;28;19932;-74
2022/10/30 07:41:47;;;;;;;;;;;;;;;11.33;100.00;101660.63;5041851;28;20395;-75
2022/10/30 07:44:12;;;;;;;;;;;;;;;11.36;100.00;101663.19;5039351;28;19998;-75
2022/10/30 07:46:37;;;;;;;;;;;;;;;11.39;100.00;101660.41;5009958;28;20532;-75
2022/10/30 07:49:03;;;;;;;;;;;;;;;11.40;100.00;101661.31;5019211;28;19929;-75
2022/10/30 07:51:28;;;;;;;;;;;;;;;11.44;100.00;101664.72;5031654;28;19932;-75
2022/10/30 07:53:54;;;;;;;;;;;;;;;11.46;100.00;101666.38;5041780;28;19933;-75
2022/10/30 07:56:19;;;;;;;;;;;;;;;11.49;100.00;101674.22;5022341;28;19929;-75
2022/10/30 07:58:44;;;;;;;;;;;;;;;11.53;100.00;101673.19;5042345;28;20361;-75
2022/10/30 08:01:10;;;;;;;;;;;;;;;11.57;100.00;101678.38;5022116;28;19972;-75
2022/10/30 08:03:35;;;;;;;;;;;;;;;11.61;100.00;101680.84;5044632;28;19958;-75
2022/10/30 08:06:01;;;;;;;;;;;;;;;11.65;100.00;101676.28;5034970;28;20045;-75
2022/10/30 08:08:26;;;;;;;;;;;;;;;11.70;100.00;101673.50;5044914;28;19933;-75
2022/10/30 08:10:52;;;;;;;;;;;;;;;11.73;100.00;101676.03;5026277;28;19932;-74
2022/10/30 08:13:17;;;;;;;;;;;;;;;11.76;100.00;101682.09;5045208;28;20464;-75
2022/10/30 08:15:43;;;;;;;;;;;;;;;11.80;100.00;101681.06;5035091;28;19936;-75
2022/10/30 08:18:08;;;;;;;;;;;;;;;11.82;100.00;101683.63;5045249;28;20455;-75
2022/10/30 08:20:33;;;;;;;;;;;;;;;11.85;100.00;101680.00;5017817;28;19994;-74
2022/10/30 08:22:59;;;;;;;;;;;;;;;11.89;100.00;101678.97;5024978;28;19929;-75
2022/10/30 08:25:26;;;;;;;;;;;;;;;11.93;100.00;101686.75;5018573;28;20382;-75
2022/10/30 08:27:53;;;;;;;;;;;;;;;11.98;100.00;101683.06;5025698;28;19920;-75
2022/10/30 08:30:19;;;;;;;;;;;;;;;12.03;100.00;101684.66;5045703;28;20058;-74
2022/10/30 08:32:44;;;;;;;;;;;;;;;12.10;100.00;101680.00;5031527;28;20278;-75
2022/10/30 08:35:10;;;;;;;;;;;;;;;12.17;100.00;101672.63;5029463;28;19931;-75
2022/10/30 08:37:35;;;;;;;;;;;;;;;12.22;100.00;101673.34;5044338;28;19931;-75
2022/10/30 08:40:00;;;;;;;;;;;;;;;12.29;100.00;101684.56;5044875;28;19932;-75
2022/10/30 08:42:26;;;;;;;;;;;;;;;12.33;100.00;101675.56;5044819;28;20401;-75
2022/10/30 08:44:52;;;;;;;;;;;;;;;12.38;100.00;101684.22;5043789;28;20057;-74
2022/10/30 08:47:17;;;;;;;;;;;;;;;12.45;100.00;101683.03;5043823;28;19990;-75
2022/10/30 08:49:43;;;;;;;;;;;;;;;12.52;100.00;101691.63;5029284;28;19925;-75
2022/10/30 08:52:08;;;;;;;;;;;;;;;12.60;100.00;101686.84;5044750;28;19932;-74
2022/10/30 08:54:34;;;;;;;;;;;;;;;12.67;100.00;101689.25;5028786;28;19924;-75
2022/10/30 08:56:59;;;;;;;;;;;;;;;12.73;100.00;101686.34;5044599;28;20058;-75
2022/10/30 08:59:24;;;;;;;;;;;;;;;12.82;100.00;101675.38;5029029;28;19924;-75
2022/10/30 09:01:50;;;;;;;;;;;;;;;12.88;100.00;101675.09;5028576;28;19928;-74
2022/10/30 09:04:15;;;;;;;;;;;;;;;12.95;100.00;101688.13;5035020;28;19931;-75
2022/10/30 09:06:40;;;;;;;;;;;;;;;12.99;100.00;101689.72;5023405;28;20362;-75
2022/10/30 09:09:06;;;;;;;;;;;;;;;13.08;100.00;101688.47;5043898;28;19929;-75
2022/10/30 09:11:31;;;;;;;;;;;;;;;13.16;100.00;101681.91;5028484;28;19928;-75
2022/10/30 09:13:57;;;;;;;;;;;;;;;13.23;100.00;101676.31;5024158;28;20300;-75
2022/10/30 09:16:22;;;;;;;;;;;;;;;13.28;100.00;101679.63;5043926;28;20355;-75
2022/10/30 09:18:47;;;;;;;;;;;;;;;13.32;100.00;101667.94;5022045;28;19925;-75
2022/10/30 09:21:13;;;;;;;;;;;;;;;13.36;100.00;101676.66;5043579;28;19964;-74
2022/10/30 09:23:38;;;;;;;;;;;;;;;13.40;100.00;101676.44;5043865;28;19958;-75
2022/10/30 09:26:04;;;;;;;;;;;;;;;13.46;100.00;101680.66;5043571;28;19932;-75
2022/10/30 09:28:29;;;;;;;;;;;;;;;13.50;100.00;101676.06;5012586;28;19936;-75
2022/10/30 09:30:55;;;;;;;;;;;;;;;13.54;100.00;101680.31;5043541;28;19925;-75
2022/10/30 09:33:21;;;;;;;;;;;;;;;13.58;100.00;101684.56;5030471;28;19948;-75
2022/10/30 09:35:46;;;;;;;;;;;;;;;13.62;100.00;101683.47;5028409;28;19924;-75
2022/10/30 09:38:12;;;;;;;;;;;;;;;13.66;100.00;101682.44;5057327;28;19924;-75
2022/10/30 09:40:40;;;;;;;;;;;;;;;13.70;100.00;101678.69;5043866;28;19935;-75
2022/10/30 09:43:15;;;;;;;;;;;;;;;13.77;100.00;101679.28;5042591;28;19936;-75
2022/10/30 09:45:50;;;;;;;;;;;;;;;13.83;100.00;101672.78;5043330;28;20039;-75
2022/10/30 09:48:15;;;;;;;;;;;;;;;13.87;100.00;101677.06;5043664;28;19928;-75
2022/10/30 09:50:59;;;;;;;;;;;;;;;13.90;100.00;101671.56;5043200;28;20361;-75
2022/10/30 09:53:40;;;;;;;;;;;;;;;13.93;100.00;101678.56;5043323;28;19931;-74
2022/10/30 09:56:07;;;;;;;;;;;;;;;13.96;100.00;101673.94;5057395;28;19928;-75
2022/10/30 09:58:50;;;;;;;;;;;;;;;14.02;100.00;101677.28;5011085;28;20352;-74
2022/10/30 10:01:17;;;;;;;;;;;;;;;14.06;100.00;101678.88;5043545;28;19939;-74
2022/10/30 10:03:57;;;;;;;;;;;;;;;14.10;100.00;101675.09;5024198;28;20023;-75
2022/10/30 10:06:23;;;;;;;;;;;;;;;14.13;100.00;101665.16;5042501;28;20411;-74
2022/10/30 10:08:51;;;;;;;;;;;;;;;14.18;100.00;101678.28;5026708;28;20192;-74
2022/10/30 10:11:21;;;;;;;;;;;;;;;14.24;100.00;101680.66;5026445;28;19925;-74
2022/10/30 10:13:47;;;;;;;;;;;;;;;14.31;100.00;101683.00;5023442;28;20027;-74
2022/10/30 10:16:14;;;;;;;;;;;;;;;14.38;100.00;101685.31;5042952;28;19929;-74
2022/10/30 10:18:45;;;;;;;;;;;;;;;14.46;100.00;101684.94;5029137;28;21071;-74
2022/10/30 10:21:27;;;;;;;;;;;;;;;14.50;100.00;101677.69;5056372;28;19929;-74
2022/10/30 10:23:58;;;;;;;;;;;;;;;14.53;100.00;101678.38;5043508;28;19924;-74
2022/10/30 10:26:33;;;;;;;;;;;;;;;14.59;100.00;101682.53;5023259;28;19924;-74
2022/10/30 10:28:58;;;;;;;;;;;;;;;14.70;100.00;101684.66;5042259;28;19928;-74
2022/10/30 10:31:45;;;;;;;;;;;;;;;14.76;100.00;101679.06;5042842;28;21051;-74
2022/10/30 10:34:17;;;;;;;;;;;;;;;14.79;100.00;101678.06;5039953;28;20029;-74
2022/10/30 10:36:43;;;;;;;;;;;;;;;14.83;100.00;101673.44;5028738;28;19933;-74
2022/10/30 10:39:11;;;;;;;;;;;;;;;14.86;100.00;101678.63;5042223;28;19924;-75
2022/10/30 10:41:44;;;;;;;;;;;;;;;14.88;100.00;101676.75;5028645;28;19929;-74
2022/10/30 10:44:20;;;;;;;;;;;;;;;14.94;100.00;101673.75;5028005;28;22406;-75
2022/10/30 10:46:49;;;;;;;;;;;;;;;14.97;100.00;101670.09;5042323;28;19944;-74
2022/10/30 10:49:17;;;;;;;;;;;;;;;15.04;100.00;101671.50;5042446;28;20615;-74
2022/10/30 10:51:43;;;;;;;;;;;;;;;15.10;100.00;101672.97;5042104;28;20055;-74
2022/10/30 10:54:18;;;;;;;;;;;;;;;15.17;100.00;101677.03;5016358;28;21149;-74
2022/10/30 10:56:44;;;;;;;;;;;;;;;15.23;100.00;101678.53;5042134;28;19924;-75
2022/10/30 10:59:12;;;;;;;;;;;;;;;15.26;100.00;101660.56;5042040;28;20391;-74
2022/10/30 11:01:38;;;;;;;;;;;;;;;15.30;100.00;101672.78;5042213;28;20394;-74
2022/10/30 11:04:07;;;;;;;;;;;;;;;15.37;100.00;101669.81;5042897;28;21038;-75
2022/10/30 11:06:37;;;;;;;;;;;;;;;15.42;100.00;101663.28;5040642;28;19935;-75
2022/10/30 11:09:16;;;;;;;;;;;;;;;15.46;100.00;101663.97;5026248;28;19982;-75
2022/10/30 11:11:44;;;;;;;;;;;;;;;15.52;100.00;101655.66;5026299;28;19931;-75
2022/10/30 11:14:14;;;;;;;;;;;;;;;15.54;100.00;101658.25;5039548;28;19931;-75
2022/10/30 11:16:52;;;;;;;;;;;;;;;15.56;100.00;101667.00;5039592;28;20006;-75
2022/10/30 11:19:17;;;;;;;;;;;;;;;15.58;100.00;101666.00;5041917;28;19929;-75
2022/10/30 11:21:44;;;;;;;;;;;;;;;15.62;100.00;101661.34;5025985;28;19924;-75
2022/10/30 11:24:33;;;;;;;;;;;;;;;15.69;100.00;101675.25;5028724;28;20334;-75
2022/10/30 11:27:15;;;;;;;;;;;;;;;15.74;100.00;101670.50;5032081;28;20070;-75
2022/10/30 11:29:45;;;;;;;;;;;;;;;15.79;100.00;101668.44;5042064;28;20387;-75
2022/10/30 11:32:10;;;;;;;;;;;;;;;15.82;100.00;101665.63;5010541;28;19925;-74
2022/10/30 11:34:36;;;;;;;;;;;;;;;15.86;100.00;101669.81;5026079;28;19925;-75
2022/10/30 11:37:02;;;;;;;;;;;;;;;15.90;100.00;101665.19;5027569;28;19924;-75
2022/10/30 11:39:29;;;;;;;;;;;;;;;15.95;100.00;101667.66;5030905;28;19978;-75
2022/10/30 11:42:13;;;;;;;;;;;;;;;15.97;100.00;101665.75;5044762;28;19928;-75
2022/10/30 11:44:42;;;;;;;;;;;;;;;15.97;100.00;101666.59;5015487;28;19968;-75
2022/10/30 11:47:08;;;;;;;;;;;;;;;15.98;100.00;101667.47;5045722;28;20070;-75
2022/10/30 11:49:43;;;;;;;;;;;;;;;15.99;100.00;101666.53;5044839;28;20120;-75
2022/10/30 11:52:09;;;;;;;;;;;;;;;16.02;100.00;101664.53;5045864;28;19928;-75
2022/10/30 11:54:35;;;;;;;;;;;;;;;16.05;100.00;101662.63;5042752;28;19935;-75
2022/10/30 11:57:00;;;;;;;;;;;;;;;16.05;100.00;101660.84;5041876;28;20016;-75
2022/10/30 11:59:26;;;;;;;;;;;;;;;16.05;100.00;101657.28;5027858;28;20314;-75
2022/10/30 12:01:57;;;;;;;;;;;;;;;16.08;100.00;101657.13;5031604;28;19964;-75
2022/10/30 12:04:24;;;;;;;;;;;;;;;16.08;100.00;101649.97;5045155;28;22213;-75
2022/10/30 12:07:09;;;;;;;;;;;;;;;16.10;100.00;101652.56;5045064;28;19963;-75
2022/10/30 12:09:47;;;;;;;;;;;;;;;16.11;100.00;101657.84;5045279;28;20394;-75
2022/10/30 12:12:20;;;;;;;;;;;;;;;16.12;100.00;101659.56;5035331;28;19975;-74
2022/10/30 12:14:46;;;;;;;;;;;;;;;16.16;100.00;101660.25;5044985;28;20232;-75
2022/10/30 12:17:13;;;;;;;;;;;;;;;16.18;100.00;101653.00;5024512;28;19929;-75
2022/10/30 12:19:43;;;;;;;;;;;;;;;16.21;100.00;101657.31;5045983;28;19929;-75
2022/10/30 12:22:08;;;;;;;;;;;;;;;16.20;100.00;101651.13;5029263;28;19924;-74
2022/10/30 12:24:37;;;;;;;;;;;;;;;16.21;100.00;101652.84;5024820;28;19931;-74
2022/10/30 12:27:03;;;;;;;;;;;;;;;16.21;100.00;101654.63;5029407;28;19925;-74
2022/10/30 12:29:47;;;;;;;;;;;;;;;16.21;100.00;101646.63;5042281;28;19936;-74